Time;durP1;ratioP1;P1;durP2;ratioP2;P2;SDS_P1;SDS_P2;PMS_P1;PMS_P2;Temp;Humidity;BMP_temperature;BMP_pressure;BME280_temperature;BME280_humidity;BME280_pressure;Samples;Min_cycle;Max_cycle;Signal;HPM_P1;HPM_P2
2022/06/23 00:01:42;;;;;;;;;;;;;;;17.70;62.98;95833.22;6377799;27;20323;-66
2022/06/23 00:04:45;;;;;;;;;;;;;;;17.71;63.19;95825.03;6395433;27;19923;-66
2022/06/23 00:07:56;;;;;;;;;;;;;;;17.79;63.29;95834.88;6396565;27;19927;-67
2022/06/23 00:11:00;;;;;;;;;;;;;;;17.90;62.98;95837.19;6396180;27;20312;-67
2022/06/23 00:14:12;;;;;;;;;;;;;;;18.03;61.80;95857.09;6395737;27;19930;-67
2022/06/23 00:17:30;;;;;;;;;;;;;;;18.17;60.89;95881.22;6396565;27;19923;-67
2022/06/23 00:20:33;;;;;;;;;;;;;;;18.32;60.90;95883.16;6398238;27;19929;-67
2022/06/23 00:23:38;;;;;;;;;;;;;;;18.45;60.96;95895.94;6401099;27;19923;-67
2022/06/23 00:26:39;;;;;;;;;;;;;;;18.50;61.63;95901.56;6400146;27;20388;-66
2022/06/23 00:29:46;;;;;;;;;;;;;;;18.46;61.76;95900.25;6400889;27;19923;-66
2022/06/23 00:32:49;;;;;;;;;;;;;;;18.44;62.45;95918.25;6400840;27;19923;-67
2022/06/23 00:35:52;;;;;;;;;;;;;;;18.45;62.90;95914.56;6400014;27;20389;-66
2022/06/23 00:38:55;;;;;;;;;;;;;;;18.46;62.84;95916.25;6400588;27;19946;-66
2022/06/23 00:41:58;;;;;;;;;;;;;;;18.39;62.59;95922.22;6400548;27;19927;-67
2022/06/23 00:45:11;;;;;;;;;;;;;;;18.47;62.26;95923.22;6399400;27;19929;-66
2022/06/23 00:48:13;;;;;;;;;;;;;;;18.54;62.18;95924.19;6381284;27;19930;-67
2022/06/23 00:51:19;;;;;;;;;;;;;;;18.63;62.05;95916.00;6400738;27;19923;-66
2022/06/23 00:54:29;;;;;;;;;;;;;;;18.69;61.98;95927.81;6400283;27;20396;-66
2022/06/23 00:57:36;;;;;;;;;;;;;;;18.79;61.78;95939.09;6400342;27;20411;-67
2022/06/23 01:00:41;;;;;;;;;;;;;;;18.90;61.53;95945.88;6400008;27;19923;-66
2022/06/23 01:03:49;;;;;;;;;;;;;;;18.89;61.38;95949.56;6399452;27;19923;-66
2022/06/23 01:06:56;;;;;;;;;;;;;;;18.83;61.12;95945.75;6399256;27;20288;-67
2022/06/23 01:10:23;;;;;;;;;;;;;;;18.84;61.16;95957.25;6399899;27;19936;-67
2022/06/23 01:13:48;;;;;;;;;;;;;;;18.68;61.11;95958.09;6352992;27;19923;-67
2022/06/23 01:16:52;;;;;;;;;;;;;;;18.83;61.04;95955.59;6398382;27;19927;-66
2022/06/23 01:20:12;;;;;;;;;;;;;;;18.85;60.90;95972.22;6398729;27;19918;-67
2022/06/23 01:23:22;;;;;;;;;;;;;;;19.02;60.50;95975.66;6398445;27;19923;-66
2022/06/23 01:26:32;;;;;;;;;;;;;;;18.91;60.90;95963.56;6398705;27;19926;-66
2022/06/23 01:29:46;;;;;;;;;;;;;;;18.88;61.10;95971.06;6399568;27;19923;-66
2022/06/23 01:33:09;;;;;;;;;;;;;;;18.95;60.92;95970.19;6398392;27;20376;-67
2022/06/23 01:36:29;;;;;;;;;;;;;;;18.87;61.45;95972.06;6398460;27;20019;-67
2022/06/23 01:39:37;;;;;;;;;;;;;;;19.08;60.69;95969.66;6398268;27;19930;-67
2022/06/23 01:42:50;;;;;;;;;;;;;;;19.03;60.80;95972.81;6399186;27;19926;-67
2022/06/23 01:46:16;;;;;;;;;;;;;;;19.01;61.06;95979.34;6399212;27;19922;-67
2022/06/23 01:49:26;;;;;;;;;;;;;;;19.15;60.74;95975.94;6366893;27;19930;-67
2022/06/23 01:52:32;;;;;;;;;;;;;;;19.11;60.53;95982.63;6399105;27;19923;-67
2022/06/23 01:55:49;;;;;;;;;;;;;;;19.14;61.30;95979.63;6398487;27;19923;-67
2022/06/23 01:59:25;;;;;;;;;;;;;;;19.08;61.53;95974.97;6397840;27;19993;-67
2022/06/23 02:02:34;;;;;;;;;;;;;;;19.15;61.97;95986.59;6274186;27;20027;-67
2022/06/23 02:05:47;;;;;;;;;;;;;;;19.14;62.43;95984.94;6397751;27;19930;-67
2022/06/23 02:08:55;;;;;;;;;;;;;;;19.20;62.71;95988.75;6398378;27;19919;-67
2022/06/23 02:11:57;;;;;;;;;;;;;;;19.28;62.59;95994.88;6397335;27;19927;-67
2022/06/23 02:15:06;;;;;;;;;;;;;;;19.26;62.67;96004.06;6398244;27;19976;-67
2022/06/23 02:18:19;;;;;;;;;;;;;;;19.28;62.14;96000.22;6398211;27;19923;-67
2022/06/23 02:21:36;;;;;;;;;;;;;;;19.44;62.26;96022.44;6396921;27;19930;-67
2022/06/23 02:24:59;;;;;;;;;;;;;;;19.65;61.48;96014.69;6398227;27;19923;-66
2022/06/23 02:28:15;;;;;;;;;;;;;;;19.87;61.10;96022.88;6398026;27;19927;-66
2022/06/23 02:31:17;;;;;;;;;;;;;;;20.07;60.35;96018.72;6396998;27;20340;-67
2022/06/23 02:34:20;;;;;;;;;;;;;;;20.30;60.17;96028.56;6397549;27;19923;-67
2022/06/23 02:37:40;;;;;;;;;;;;;;;20.53;59.65;96034.72;6396981;27;20056;-67
2022/06/23 02:40:44;;;;;;;;;;;;;;;20.84;59.07;96037.22;6396926;27;19942;-67
2022/06/23 02:43:49;;;;;;;;;;;;;;;21.20;58.52;96041.84;6396266;27;20281;-67
2022/06/23 02:47:11;;;;;;;;;;;;;;;21.66;57.29;96046.94;6397190;27;19919;-67
2022/06/23 02:50:31;;;;;;;;;;;;;;;22.18;56.35;96047.69;6396194;27;20307;-68
2022/06/23 02:53:48;;;;;;;;;;;;;;;22.62;55.16;96041.28;6396509;27;19923;-68
2022/06/23 02:56:49;;;;;;;;;;;;;;;22.91;54.39;96044.78;6396887;27;20010;-67
2022/06/23 02:59:57;;;;;;;;;;;;;;;22.94;54.41;96047.06;6397371;27;19923;-68
2022/06/23 03:03:03;;;;;;;;;;;;;;;23.03;54.40;96043.22;6396405;27;19923;-67
2022/06/23 03:06:14;;;;;;;;;;;;;;;23.25;53.79;96049.31;6396184;27;20389;-68
2022/06/23 03:09:17;;;;;;;;;;;;;;;23.40;53.38;96043.81;6396085;27;19923;-67
2022/06/23 03:12:39;;;;;;;;;;;;;;;23.48;53.88;96040.97;6386083;27;19923;-66
2022/06/23 03:15:48;;;;;;;;;;;;;;;23.52;53.61;96042.19;6370797;28;20380;-67
2022/06/23 03:18:52;;;;;;;;;;;;;;;23.51;53.48;96040.56;6370441;28;19934;-67
2022/06/23 03:22:09;;;;;;;;;;;;;;;23.45;53.61;96041.34;6370167;28;19930;-67
2022/06/23 03:25:22;;;;;;;;;;;;;;;23.42;53.95;96041.75;6369885;28;19931;-66
2022/06/23 03:28:26;;;;;;;;;;;;;;;23.43;53.75;96043.41;6370443;28;19923;-67
2022/06/23 03:32:06;;;;;;;;;;;;;;;23.38;53.80;96049.38;6370166;28;19923;-68
2022/06/23 03:35:16;;;;;;;;;;;;;;;23.26;53.97;96051.78;6370364;28;19923;-67
2022/06/23 03:41:36;;;;;;;;;;;;;;;23.21;53.94;96046.22;6369990;28;19924;-67
2022/06/23 03:41:51;;;;;;;;;;;;;;;23.23;53.76;96054.88;6370117;28;19923;-67
2022/06/23 03:45:13;;;;;;;;;;;;;;;23.33;53.47;96048.34;6370688;28;19924;-67
2022/06/23 03:48:17;;;;;;;;;;;;;;;23.46;53.12;96051.88;6352324;28;20296;-67
2022/06/23 03:51:26;;;;;;;;;;;;;;;23.58;53.00;96040.56;6370008;28;19977;-67
2022/06/23 03:54:29;;;;;;;;;;;;;;;23.77;52.32;96041.69;6372017;27;19930;-67
2022/06/23 03:57:37;;;;;;;;;;;;;;;23.99;51.91;96048.59;6374498;27;19935;-67
2022/06/23 04:00:46;;;;;;;;;;;;;;;24.29;51.18;96058.94;6375714;27;19923;-68
2022/06/23 04:03:54;;;;;;;;;;;;;;;24.43;50.60;96063.38;6375646;27;19924;-67
2022/06/23 04:06:56;;;;;;;;;;;;;;;24.42;50.64;96069.72;6374906;27;19924;-67
2022/06/23 04:10:08;;;;;;;;;;;;;;;24.36;50.71;96059.78;6375506;27;19923;-67
2022/06/23 04:13:20;;;;;;;;;;;;;;;24.42;50.28;96061.66;6375191;27;20343;-68
2022/06/23 04:16:24;;;;;;;;;;;;;;;24.45;50.17;96063.97;6374773;27;19930;-67
2022/06/23 04:19:28;;;;;;;;;;;;;;;24.54;50.12;96062.75;6374772;27;19978;-68
2022/06/23 04:22:36;;;;;;;;;;;;;;;24.53;49.89;96054.88;6374455;27;19943;-67
2022/06/23 04:25:47;;;;;;;;;;;;;;;24.53;49.48;96060.25;6375259;27;19927;-67
2022/06/23 04:28:53;;;;;;;;;;;;;;;24.54;48.94;96062.75;6374209;27;19931;-66
2022/06/23 04:32:03;;;;;;;;;;;;;;;24.41;49.26;96062.69;6375399;27;19927;-67
2022/06/23 04:35:10;;;;;;;;;;;;;;;24.40;48.93;96058.34;6374931;27;19923;-67
2022/06/23 04:38:11;;;;;;;;;;;;;;;24.58;48.16;96065.84;6374829;27;19923;-67
2022/06/23 04:41:24;;;;;;;;;;;;;;;24.59;48.04;96060.25;6374458;27;20016;-67
2022/06/23 04:44:33;;;;;;;;;;;;;;;24.73;47.95;96061.06;6373877;27;19927;-67
2022/06/23 04:47:40;;;;;;;;;;;;;;;24.97;47.91;96064.97;6374809;27;19923;-67
2022/06/23 04:50:41;;;;;;;;;;;;;;;25.24;46.80;96064.94;6374072;27;19930;-66
2022/06/23 04:54:02;;;;;;;;;;;;;;;25.27;46.81;96067.22;6374620;27;19923;-67
2022/06/23 04:57:16;;;;;;;;;;;;;;;25.61;45.31;96073.31;6374195;27;19924;-68
2022/06/23 05:00:37;;;;;;;;;;;;;;;25.99;44.43;96076.09;6374189;27;20323;-68
2022/06/23 05:03:47;;;;;;;;;;;;;;;26.57;43.32;96072.41;6373453;27;19931;-67
2022/06/23 05:06:52;;;;;;;;;;;;;;;27.92;40.76;96071.69;6373827;27;19972;-67
2022/06/23 05:09:59;;;;;;;;;;;;;;;31.62;35.58;96088.06;6374012;27;20429;-67
2022/06/23 05:13:03;;;;;;;;;;;;;;;32.81;32.49;96085.56;6374079;27;20014;-67
2022/06/23 05:16:10;;;;;;;;;;;;;;;32.13;33.08;96072.38;6373892;27;19924;-67
2022/06/23 05:19:28;;;;;;;;;;;;;;;31.26;33.29;96082.09;6373916;27;19923;-67
2022/06/23 05:22:44;;;;;;;;;;;;;;;30.42;34.84;96082.88;6373858;27;19919;-67
2022/06/23 05:25:53;;;;;;;;;;;;;;;30.14;34.58;96082.88;6373643;27;19930;-67
2022/06/23 05:29:00;;;;;;;;;;;;;;;30.09;34.91;96088.19;6372494;27;19919;-67
2022/06/23 05:32:05;;;;;;;;;;;;;;;30.18;35.15;96092.19;6372596;27;20300;-66
2022/06/23 05:35:14;;;;;;;;;;;;;;;30.61;33.15;96097.06;6372226;27;20304;-66
2022/06/23 05:38:30;;;;;;;;;;;;;;;32.51;30.07;96091.56;6373394;27;19924;-67
2022/06/23 05:41:36;;;;;;;;;;;;;;;35.99;25.31;96109.91;6372336;27;19927;-67
2022/06/23 05:44:46;;;;;;;;;;;;;;;38.51;23.02;96107.50;6372195;27;19924;-67
2022/06/23 05:47:51;;;;;;;;;;;;;;;38.64;21.98;96111.41;6373171;27;19927;-67
2022/06/23 05:51:14;;;;;;;;;;;;;;;37.83;22.87;96103.09;6373052;27;19923;-67
2022/06/23 05:54:27;;;;;;;;;;;;;;;36.76;24.10;96098.56;6371683;27;19923;-68
2022/06/23 05:57:36;;;;;;;;;;;;;;;36.29;25.00;96099.94;6373259;27;20388;-66
2022/06/23 06:00:37;;;;;;;;;;;;;;;35.53;24.22;96096.34;6371992;27;19930;-67
2022/06/23 06:03:46;;;;;;;;;;;;;;;34.20;26.14;96096.28;6372045;27;19923;-68
2022/06/23 06:06:50;;;;;;;;;;;;;;;33.37;26.77;96083.25;6372766;27;19928;-68
2022/06/23 06:09:55;;;;;;;;;;;;;;;34.32;25.29;96102.28;6373141;27;19927;-67
2022/06/23 06:12:57;;;;;;;;;;;;;;;36.02;23.81;96092.94;6371587;27;19923;-67
2022/06/23 06:16:04;;;;;;;;;;;;;;;40.16;19.94;96112.63;6371477;27;19923;-67
2022/06/23 06:19:05;;;;;;;;;;;;;;;43.86;17.32;96124.19;6370699;27;20295;-67
2022/06/23 06:22:27;;;;;;;;;;;;;;;44.60;14.85;96108.97;6372378;27;19919;-67
2022/06/23 06:25:35;;;;;;;;;;;;;;;42.76;16.82;96123.69;6371954;27;20022;-67
2022/06/23 06:28:39;;;;;;;;;;;;;;;40.43;18.35;96115.66;6372054;27;20466;-67
2022/06/23 06:31:46;;;;;;;;;;;;;;;37.30;20.88;96100.34;6371568;27;20441;-67
2022/06/23 06:34:49;;;;;;;;;;;;;;;35.97;22.91;96091.00;6370883;27;19930;-67
2022/06/23 06:38:15;;;;;;;;;;;;;;;35.55;23.34;96088.66;6371613;27;19923;-67
2022/06/23 06:41:16;;;;;;;;;;;;;;;35.83;23.04;96089.16;6340071;27;20404;-67
2022/06/23 06:44:18;;;;;;;;;;;;;;;36.07;22.83;96087.47;6371086;27;19923;-67
2022/06/23 06:47:25;;;;;;;;;;;;;;;36.16;22.77;96080.28;6354327;27;19923;-67
2022/06/23 06:50:32;;;;;;;;;;;;;;;35.62;22.89;96089.25;6370936;27;19923;-68
2022/06/23 06:53:43;;;;;;;;;;;;;;;36.22;22.35;96080.25;6371671;27;20447;-67
2022/06/23 06:56:49;;;;;;;;;;;;;;;37.38;21.62;96090.66;6370361;27;20018;-66
2022/06/23 07:00:12;;;;;;;;;;;;;;;38.78;19.87;96106.78;6371626;27;19931;-66
2022/06/23 07:03:18;;;;;;;;;;;;;;;39.33;19.74;96113.69;6371443;27;19928;-66
2022/06/23 07:06:32;;;;;;;;;;;;;;;38.34;21.31;96107.16;6371480;27;20401;-67
2022/06/23 07:09:43;;;;;;;;;;;;;;;37.79;21.94;96113.00;6371500;27;19931;-67
2022/06/23 07:12:56;;;;;;;;;;;;;;;37.17;22.68;96106.47;6370378;27;19923;-67
2022/06/23 07:16:05;;;;;;;;;;;;;;;37.86;20.99;96112.69;6371360;27;20342;-68
2022/06/23 07:19:09;;;;;;;;;;;;;;;37.16;21.62;96102.94;6370798;28;20013;-67
2022/06/23 07:22:33;;;;;;;;;;;;;;;35.84;22.66;96105.31;6370630;28;19923;-68
2022/06/23 07:25:37;;;;;;;;;;;;;;;34.49;24.30;96112.19;6353239;28;20420;-67
2022/06/23 07:28:43;;;;;;;;;;;;;;;33.72;25.12;96106.41;6371941;27;20297;-67
2022/06/23 07:32:01;;;;;;;;;;;;;;;33.61;25.55;96104.72;6376175;27;19924;-67
2022/06/23 07:35:17;;;;;;;;;;;;;;;33.81;25.54;96113.00;6376080;27;19923;-68
2022/06/23 07:38:39;;;;;;;;;;;;;;;34.58;25.06;96113.31;6375850;27;19923;-67
2022/06/23 07:41:46;;;;;;;;;;;;;;;35.10;24.58;96109.53;6376050;27;19923;-68
2022/06/23 07:44:56;;;;;;;;;;;;;;;35.42;24.13;96100.22;6357146;27;19976;-68
2022/06/23 07:47:59;;;;;;;;;;;;;;;35.73;23.42;96101.78;6375676;27;19965;-67
2022/06/23 07:51:04;;;;;;;;;;;;;;;35.30;24.08;96109.53;6375811;27;20401;-67
2022/06/23 07:54:14;;;;;;;;;;;;;;;34.61;24.73;96101.84;6374907;27;19928;-67
2022/06/23 07:57:17;;;;;;;;;;;;;;;34.37;25.52;96101.50;6375591;27;19924;-67
2022/06/23 08:00:19;;;;;;;;;;;;;;;34.30;25.37;96096.28;6375258;27;20427;-68
2022/06/23 08:03:32;;;;;;;;;;;;;;;35.03;24.03;96103.50;6375449;27;19916;-67
2022/06/23 08:06:36;;;;;;;;;;;;;;;38.01;21.21;96111.69;6374238;27;20345;-66
2022/06/23 08:09:43;;;;;;;;;;;;;;;39.66;19.09;96115.28;6374939;27;20392;-67
2022/06/23 08:13:10;;;;;;;;;;;;;;;40.63;17.60;96118.03;6374335;27;19923;-67
2022/06/23 08:19:42;;;;;;;;;;;;;;;41.19;17.33;96132.41;6374512;27;19923;-66
2022/06/23 08:22:48;;;;;;;;;;;;;;;40.82;18.01;96117.84;6375211;27;20315;-66
2022/06/23 08:25:50;;;;;;;;;;;;;;;39.51;19.02;96118.28;6374540;27;19924;-67
2022/06/23 08:28:57;;;;;;;;;;;;;;;38.13;20.17;96115.69;6375429;27;19930;-68
2022/06/23 08:32:01;;;;;;;;;;;;;;;36.69;21.75;96125.47;6375031;27;19927;-66
2022/06/23 08:35:28;;;;;;;;;;;;;;;37.08;21.48;96106.28;6374923;27;19923;-67
2022/06/23 08:38:32;;;;;;;;;;;;;;;39.83;18.73;96124.88;6374245;27;19924;-67
2022/06/23 08:41:39;;;;;;;;;;;;;;;42.77;16.18;96136.38;6374077;27;19923;-66
2022/06/23 08:44:40;;;;;;;;;;;;;;;45.10;14.49;96145.31;6374034;27;20406;-67
2022/06/23 08:48:01;;;;;;;;;;;;;;;45.68;13.60;96143.50;6374696;27;19992;-67
2022/06/23 08:51:08;;;;;;;;;;;;;;;45.33;13.63;96143.03;6374566;27;19942;-67
2022/06/23 08:54:23;;;;;;;;;;;;;;;44.45;14.14;96147.56;6374484;27;19923;-67
2022/06/23 08:57:34;;;;;;;;;;;;;;;42.69;15.10;96142.72;6374525;27;19923;-67
2022/06/23 09:00:50;;;;;;;;;;;;;;;40.55;16.42;96118.72;6374350;27;19923;-67
2022/06/23 09:03:51;;;;;;;;;;;;;;;39.17;17.83;96135.91;6374128;27;19923;-67
2022/06/23 09:06:54;;;;;;;;;;;;;;;39.16;18.20;96127.97;6373865;27;19927;-67
2022/06/23 09:10:19;;;;;;;;;;;;;;;39.39;17.61;96142.75;6374119;27;19953;-68
2022/06/23 09:13:23;;;;;;;;;;;;;;;39.99;17.25;96123.47;6373707;27;20388;-67
2022/06/23 09:16:42;;;;;;;;;;;;;;;39.81;17.47;96121.63;6372669;27;19923;-67
2022/06/23 09:19:49;;;;;;;;;;;;;;;40.23;17.00;96116.94;6373186;27;20415;-68
2022/06/23 09:22:53;;;;;;;;;;;;;;;40.37;17.10;96131.50;6372729;27;19919;-67
2022/06/23 09:26:05;;;;;;;;;;;;;;;39.88;17.28;96133.03;6354791;27;19962;-67
2022/06/23 09:29:09;;;;;;;;;;;;;;;38.49;18.53;96125.38;6373403;27;20296;-67
2022/06/23 09:32:27;;;;;;;;;;;;;;;39.36;18.16;96130.41;6373293;27;19971;-67
2022/06/23 09:35:47;;;;;;;;;;;;;;;40.31;16.98;96132.75;6372427;27;19923;-67
2022/06/23 09:39:00;;;;;;;;;;;;;;;39.02;18.02;96138.94;6373197;27;19931;-67
2022/06/23 09:42:19;;;;;;;;;;;;;;;38.79;18.62;96138.69;6372632;27;20393;-67
2022/06/23 09:45:23;;;;;;;;;;;;;;;37.94;19.51;96129.34;6373244;27;19923;-67
2022/06/23 09:48:43;;;;;;;;;;;;;;;37.35;19.98;96140.63;6373096;27;19923;-67
2022/06/23 09:51:46;;;;;;;;;;;;;;;35.92;21.23;96131.28;6371141;27;19923;-67
2022/06/23 09:55:25;;;;;;;;;;;;;;;35.21;21.88;96133.03;6372689;27;19923;-67
2022/06/23 09:58:31;;;;;;;;;;;;;;;35.38;22.03;96131.94;6249284;27;19986;-66
2022/06/23 10:01:47;;;;;;;;;;;;;;;35.44;22.30;96141.78;6372017;27;19923;-68
2022/06/23 10:04:54;;;;;;;;;;;;;;;35.08;22.96;96139.06;6372553;27;19923;-68
2022/06/23 10:08:12;;;;;;;;;;;;;;;35.79;21.84;96134.63;6372017;27;20296;-67
2022/06/23 10:11:19;;;;;;;;;;;;;;;36.27;21.35;96145.97;6372237;27;19930;-68
2022/06/23 10:14:26;;;;;;;;;;;;;;;35.42;22.00;96138.50;6369374;27;19923;-67
2022/06/23 10:17:30;;;;;;;;;;;;;;;34.75;22.75;96141.19;6371761;27;19924;-67
2022/06/23 10:20:40;;;;;;;;;;;;;;;34.55;23.22;96141.13;6372010;27;20380;-68
2022/06/23 10:23:46;;;;;;;;;;;;;;;34.34;23.51;96146.56;6372110;27;20420;-67
2022/06/23 10:26:47;;;;;;;;;;;;;;;34.19;23.73;96160.94;6371430;27;19930;-68
2022/06/23 10:29:53;;;;;;;;;;;;;;;34.16;24.02;96155.22;6371989;27;19919;-68
2022/06/23 10:33:13;;;;;;;;;;;;;;;34.28;23.88;96157.72;6371100;27;19923;-67
2022/06/23 10:36:22;;;;;;;;;;;;;;;35.28;22.58;96155.47;6371351;27;20308;-67
2022/06/23 10:39:44;;;;;;;;;;;;;;;36.05;20.82;96155.38;6371997;27;19930;-68
2022/06/23 10:43:04;;;;;;;;;;;;;;;36.06;21.10;96148.78;6371351;27;20388;-68
2022/06/23 10:46:20;;;;;;;;;;;;;;;36.78;20.10;96148.47;6371656;27;20311;-66
2022/06/23 10:49:24;;;;;;;;;;;;;;;37.85;19.23;96155.81;6371828;27;20014;-67
2022/06/23 10:52:28;;;;;;;;;;;;;;;38.15;19.26;96148.34;6370681;27;19931;-67
2022/06/23 10:55:38;;;;;;;;;;;;;;;38.45;19.01;96154.59;6371644;27;19924;-67
2022/06/23 10:58:48;;;;;;;;;;;;;;;37.94;18.72;96148.59;6370818;27;19923;-68
2022/06/23 11:01:49;;;;;;;;;;;;;;;36.51;20.12;96144.19;6369910;27;19938;-68
2022/06/23 11:05:14;;;;;;;;;;;;;;;35.55;21.30;96132.44;6371135;27;20300;-67
2022/06/23 11:08:20;;;;;;;;;;;;;;;35.39;21.55;96142.63;6371454;27;20300;-68
2022/06/23 11:11:28;;;;;;;;;;;;;;;35.07;22.38;96138.22;6371113;27;19946;-67
2022/06/23 11:14:35;;;;;;;;;;;;;;;34.79;22.65;96130.53;6369855;27;20050;-67
2022/06/23 11:17:41;;;;;;;;;;;;;;;35.22;22.34;96136.63;6371707;27;19923;-67
2022/06/23 11:20:56;;;;;;;;;;;;;;;36.17;21.54;96127.66;6371134;28;19923;-67
2022/06/23 11:24:04;;;;;;;;;;;;;;;37.48;20.38;96123.50;6371029;28;19952;-67
2022/06/23 11:27:06;;;;;;;;;;;;;;;37.98;19.75;96126.84;6370211;28;20316;-67
2022/06/23 11:30:14;;;;;;;;;;;;;;;38.12;19.52;96121.44;6369966;28;20451;-67
2022/06/23 11:33:39;;;;;;;;;;;;;;;38.02;19.75;96110.56;6370537;28;19927;-67
2022/06/23 11:36:59;;;;;;;;;;;;;;;38.16;19.84;96123.31;6357039;28;19927;-67
2022/06/23 11:40:21;;;;;;;;;;;;;;;38.13;20.31;96120.31;6371168;28;20305;-67
2022/06/23 11:43:25;;;;;;;;;;;;;;;37.46;20.81;96120.22;6370828;28;20338;-67
2022/06/23 11:46:38;;;;;;;;;;;;;;;36.56;21.71;96114.06;6370016;28;19960;-68
2022/06/23 11:49:59;;;;;;;;;;;;;;;36.26;22.22;96108.72;6370241;28;20065;-67
2022/06/23 11:53:16;;;;;;;;;;;;;;;36.04;22.52;96107.16;6354993;28;19924;-66
2022/06/23 11:56:35;;;;;;;;;;;;;;;35.85;22.84;96109.69;6370577;28;19927;-68
2022/06/23 11:59:42;;;;;;;;;;;;;;;35.73;22.90;96110.00;6370807;28;19923;-67
2022/06/23 12:02:46;;;;;;;;;;;;;;;35.63;22.94;96096.34;6370817;28;19924;-67
2022/06/23 12:05:52;;;;;;;;;;;;;;;35.59;23.22;96095.28;6370950;28;19927;-66
2022/06/23 12:08:53;;;;;;;;;;;;;;;35.63;23.08;96101.81;6370711;28;19923;-68
2022/06/23 12:11:59;;;;;;;;;;;;;;;34.99;24.05;96091.47;6370065;28;20072;-68
2022/06/23 12:15:03;;;;;;;;;;;;;;;34.20;25.24;96090.81;6370242;27;19927;-68
2022/06/23 12:18:13;;;;;;;;;;;;;;;33.89;25.56;96089.84;6374275;27;19927;-67
2022/06/23 12:21:30;;;;;;;;;;;;;;;33.61;25.71;96082.91;6375386;27;19923;-68
2022/06/23 12:24:51;;;;;;;;;;;;;;;33.48;26.10;96076.78;6375046;27;20022;-67
2022/06/23 12:28:04;;;;;;;;;;;;;;;33.14;26.72;96080.94;6374381;27;19930;-67
2022/06/23 12:31:27;;;;;;;;;;;;;;;32.79;27.04;96071.41;6374995;27;20034;-68
2022/06/23 12:34:40;;;;;;;;;;;;;;;33.21;26.79;96067.91;6374606;27;19929;-68
2022/06/23 12:38:11;;;;;;;;;;;;;;;33.55;26.37;96071.16;6374425;27;19927;-67
2022/06/23 12:41:21;;;;;;;;;;;;;;;33.48;26.65;96074.06;6371101;27;20014;-70
2022/06/23 12:44:23;;;;;;;;;;;;;;;33.08;27.15;96059.09;6374315;27;19989;-68
2022/06/23 12:47:48;;;;;;;;;;;;;;;33.16;27.13;96055.06;6374683;27;19927;-67
2022/06/23 12:51:12;;;;;;;;;;;;;;;33.57;26.81;96059.94;6373580;27;19935;-69
2022/06/23 12:54:25;;;;;;;;;;;;;;;33.64;26.59;96064.09;6374041;27;19923;-68
2022/06/23 12:57:41;;;;;;;;;;;;;;;33.53;26.82;96060.47;6372854;27;19923;-68
2022/06/23 13:00:59;;;;;;;;;;;;;;;33.20;27.51;96058.09;6373949;27;19937;-67
2022/06/23 13:04:05;;;;;;;;;;;;;;;32.85;27.89;96062.19;6373732;27;19923;-67
2022/06/23 13:07:19;;;;;;;;;;;;;;;32.69;28.15;96050.31;6373672;27;20410;-67
2022/06/23 13:10:38;;;;;;;;;;;;;;;32.57;28.73;96055.13;6373654;27;19923;-68
2022/06/23 13:13:45;;;;;;;;;;;;;;;32.39;28.39;96056.31;6373865;27;20300;-67
2022/06/23 13:16:55;;;;;;;;;;;;;;;32.07;29.14;96048.88;6372691;27;20304;-67
2022/06/23 13:20:05;;;;;;;;;;;;;;;32.10;29.24;96051.13;6373504;27;19923;-68
2022/06/23 13:23:16;;;;;;;;;;;;;;;32.45;28.47;96052.53;6373693;27;20022;-68
2022/06/23 13:26:28;;;;;;;;;;;;;;;32.74;28.77;96055.00;6372844;27;19923;-68
2022/06/23 13:29:29;;;;;;;;;;;;;;;32.70;28.77;96049.25;6372405;27;19927;-68
2022/06/23 13:32:36;;;;;;;;;;;;;;;32.38;28.97;96055.47;6372510;27;20323;-69
2022/06/23 13:35:45;;;;;;;;;;;;;;;32.19;29.29;96046.03;6371974;27;19929;-68
2022/06/23 13:38:54;;;;;;;;;;;;;;;31.98;29.52;96050.44;6372355;27;19931;-68
2022/06/23 13:42:13;;;;;;;;;;;;;;;31.98;29.87;96050.44;6373103;27;19923;-68
2022/06/23 13:45:31;;;;;;;;;;;;;;;31.85;30.04;96045.34;6373102;27;19942;-67
2022/06/23 13:48:32;;;;;;;;;;;;;;;31.77;30.16;96046.63;6353558;27;20014;-68
2022/06/23 13:51:56;;;;;;;;;;;;;;;31.83;30.09;96052.94;6372631;27;19920;-68
2022/06/23 13:55:11;;;;;;;;;;;;;;;31.91;29.74;96049.81;6372556;27;20053;-67
2022/06/23 13:58:20;;;;;;;;;;;;;;;31.80;30.05;96040.69;6372686;27;19927;-67
2022/06/23 14:01:30;;;;;;;;;;;;;;;31.62;29.97;96047.28;6372429;27;19923;-67
2022/06/23 14:04:40;;;;;;;;;;;;;;;31.61;30.54;96051.06;6372736;27;19919;-67
2022/06/23 14:07:54;;;;;;;;;;;;;;;31.67;30.61;96044.59;6371625;27;19923;-67
2022/06/23 14:11:03;;;;;;;;;;;;;;;31.48;30.77;96048.69;6372520;27;19926;-69
2022/06/23 14:14:13;;;;;;;;;;;;;;;31.30;31.09;96045.16;6321646;28;19931;-68
2022/06/23 14:17:24;;;;;;;;;;;;;;;31.30;31.17;96047.91;6321015;28;19947;-68
2022/06/23 14:20:43;;;;;;;;;;;;;;;31.17;31.13;96045.56;6321528;28;19924;-68
2022/06/23 14:23:50;;;;;;;;;;;;;;;31.04;31.31;96051.31;6321117;28;19928;-68
2022/06/23 14:26:55;;;;;;;;;;;;;;;31.00;31.93;96053.72;6321305;28;19928;-66
2022/06/23 14:30:06;;;;;;;;;;;;;;;30.82;31.78;96054.78;6320129;28;19919;-68
2022/06/23 14:33:17;;;;;;;;;;;;;;;30.85;32.16;96050.75;6321003;28;19924;-68
2022/06/23 14:36:18;;;;;;;;;;;;;;;30.82;32.18;96052.06;6321283;28;19931;-68
2022/06/23 14:39:19;;;;;;;;;;;;;;;30.79;32.23;96052.56;6320605;28;19924;-67
2022/06/23 14:42:32;;;;;;;;;;;;;;;30.70;32.66;96045.06;6320992;28;19924;-67
2022/06/23 14:45:57;;;;;;;;;;;;;;;30.58;32.82;96053.31;6320870;28;20390;-69
2022/06/23 14:49:07;;;;;;;;;;;;;;;30.49;32.74;96052.03;6320943;28;19924;-66
2022/06/23 14:52:24;;;;;;;;;;;;;;;30.40;32.78;96057.91;6320790;28;19924;-68
2022/06/23 14:55:32;;;;;;;;;;;;;;;30.34;33.06;96058.84;6320036;28;20400;-68
2022/06/23 14:58:48;;;;;;;;;;;;;;;30.27;33.05;96052.75;6318826;28;19931;-68
2022/06/23 15:01:54;;;;;;;;;;;;;;;30.18;33.02;96059.63;6319612;28;19930;-68
2022/06/23 15:05:00;;;;;;;;;;;;;;;30.03;33.17;96060.16;6320328;28;19928;-68
2022/06/23 15:08:06;;;;;;;;;;;;;;;29.98;33.67;96060.06;6319951;28;19947;-68
2022/06/23 15:11:13;;;;;;;;;;;;;;;29.95;33.92;96065.94;6320845;28;20281;-68
2022/06/23 15:14:14;;;;;;;;;;;;;;;29.75;34.36;96067.22;6370017;27;20315;-67
2022/06/23 15:17:20;;;;;;;;;;;;;;;29.42;35.09;96073.25;6370346;27;19923;-68
2022/06/23 15:20:36;;;;;;;;;;;;;;;29.34;35.48;96070.91;6371073;28;19927;-68
2022/06/23 15:23:45;;;;;;;;;;;;;;;29.19;35.71;96067.88;6370985;28;19923;-68
2022/06/23 15:26:54;;;;;;;;;;;;;;;28.93;35.98;96069.97;6370924;28;19923;-67
2022/06/23 15:29:59;;;;;;;;;;;;;;;28.75;36.21;96070.06;6370040;28;20411;-68
2022/06/23 15:33:18;;;;;;;;;;;;;;;28.63;36.26;96076.28;6369879;28;19930;-68
2022/06/23 15:36:38;;;;;;;;;;;;;;;28.63;36.50;96076.28;6369995;28;19927;-68
2022/06/23 15:39:45;;;;;;;;;;;;;;;28.45;36.86;96078.22;6369685;28;19963;-68
2022/06/23 15:42:58;;;;;;;;;;;;;;;28.32;37.07;96090.06;6370757;28;19923;-68
2022/06/23 15:46:04;;;;;;;;;;;;;;;28.18;37.24;96082.13;6370374;28;19927;-66
2022/06/23 15:49:30;;;;;;;;;;;;;;;28.06;37.38;96086.69;6371291;27;19924;-68
2022/06/23 15:52:39;;;;;;;;;;;;;;;27.98;37.98;96095.09;6329259;27;19924;-68
2022/06/23 15:55:42;;;;;;;;;;;;;;;27.84;38.13;96089.03;6375144;27;19923;-68
2022/06/23 15:58:43;;;;;;;;;;;;;;;27.70;38.23;96091.03;6374296;27;19976;-68
2022/06/23 16:01:54;;;;;;;;;;;;;;;27.57;38.30;96077.69;6374924;27;19919;-69
2022/06/23 16:05:00;;;;;;;;;;;;;;;27.47;38.80;96088.22;6375117;27;19924;-68
2022/06/23 16:08:08;;;;;;;;;;;;;;;27.35;38.86;96090.84;6375180;27;19919;-67
2022/06/23 16:11:11;;;;;;;;;;;;;;;27.21;39.38;96098.25;6373712;27;20011;-67
2022/06/23 16:14:16;;;;;;;;;;;;;;;27.07;38.97;96100.22;6374912;27;19923;-68
2022/06/23 16:17:24;;;;;;;;;;;;;;;26.96;39.52;96097.41;6374607;27;19927;-67
2022/06/23 16:20:31;;;;;;;;;;;;;;;26.81;39.38;96109.38;6373705;27;19923;-67
2022/06/23 16:23:54;;;;;;;;;;;;;;;26.70;39.80;96117.38;6373580;27;19923;-68
2022/06/23 16:27:05;;;;;;;;;;;;;;;26.57;40.16;96126.38;6374653;27;19988;-68
2022/06/23 16:30:22;;;;;;;;;;;;;;;26.47;40.62;96136.78;6374733;27;19923;-68
2022/06/23 16:33:29;;;;;;;;;;;;;;;26.37;40.62;96138.06;6373217;27;19923;-67
2022/06/23 16:36:36;;;;;;;;;;;;;;;26.27;41.20;96135.03;6374274;27;19923;-68